Time;durP1;ratioP1;P1;durP2;ratioP2;P2;SDS_P1;SDS_P2;PMS_P1;PMS_P2;Temp;Humidity;BMP_temperature;BMP_pressure;BME280_temperature;BME280_humidity;BME280_pressure;Samples;Min_cycle;Max_cycle;Signal;HPM_P1;HPM_P2
2022/04/19 00:00:22;;;;;;;;;9.50;9.00;;;;;-146.03;100.00;60875.16;6272371;22;45328;-85
2022/04/19 00:02:47;;;;;;;;;8.50;8.50;;;;;-146.03;100.00;60875.16;6272112;22;46036;-85
2022/04/19 00:05:12;;;;;;;;;9.50;8.50;;;;;-146.03;100.00;60875.16;6271338;22;45278;-85
2022/04/19 00:07:39;;;;;;;;;6.50;6.50;;;;;-146.03;100.00;60875.16;6272478;22;45169;-86
2022/04/19 00:10:06;;;;;;;;;8.50;5.50;;;;;-146.03;100.00;60875.16;6272164;22;45402;-86
2022/04/19 00:12:31;;;;;;;;;7.25;7.25;;;;;-146.03;100.00;60875.16;6271933;22;46562;-85
2022/04/19 00:14:57;;;;;;;;;7.00;5.75;;;;;-146.03;100.00;60875.16;6244247;22;45354;-86
2022/04/19 00:17:22;;;;;;;;;7.25;7.25;;;;;-146.03;100.00;60875.16;6272195;22;45528;-86
2022/04/19 00:19:48;;;;;;;;;7.50;7.50;;;;;-146.03;100.00;60875.16;6272357;22;45674;-86
2022/04/19 00:22:13;;;;;;;;;11.50;11.00;;;;;-146.03;100.00;60875.16;6272948;22;45580;-86
2022/04/19 00:24:39;;;;;;;;;8.75;8.75;;;;;-146.03;100.00;60875.16;6272105;22;45306;-86
2022/04/19 00:27:05;;;;;;;;;6.00;6.00;;;;;-146.03;100.00;60875.16;6271801;22;45457;-86
2022/04/19 00:29:30;;;;;;;;;9.75;7.50;;;;;-146.03;100.00;60875.16;6272568;22;45640;-86
2022/04/19 00:31:56;;;;;;;;;2.00;2.00;;;;;-146.03;100.00;60875.16;6272095;22;47068;-86
2022/04/19 00:34:22;;;;;;;;;6.00;6.00;;;;;-146.03;100.00;60875.16;6272853;22;45251;-86
2022/04/19 00:36:47;;;;;;;;;6.25;4.75;;;;;-146.03;100.00;60875.16;6273061;22;45583;-86
2022/04/19 00:39:12;;;;;;;;;8.00;8.00;;;;;-146.03;100.00;60875.16;6245605;22;45448;-86
2022/04/19 00:41:38;;;;;;;;;5.00;5.00;;;;;-146.03;100.00;60875.16;6273112;22;45302;-86
2022/04/19 00:44:03;;;;;;;;;6.75;5.75;;;;;-146.03;100.00;60875.16;6272780;22;45321;-86
2022/04/19 00:46:29;;;;;;;;;9.50;6.25;;;;;-146.03;100.00;60875.16;6273362;22;45301;-86
2022/04/19 00:48:56;;;;;;;;;5.00;4.25;;;;;-146.03;100.00;60875.16;6272717;22;45256;-86
2022/04/19 00:51:23;;;;;;;;;5.75;4.50;;;;;-146.03;100.00;60875.16;6272735;22;45953;-86
2022/04/19 00:53:49;;;;;;;;;6.25;4.50;;;;;-146.03;100.00;60875.16;6245108;22;45394;-86
2022/04/19 00:56:15;;;;;;;;;4.00;4.00;;;;;-146.03;100.00;60875.16;6272528;22;48020;-87
2022/04/19 00:58:40;;;;;;;;;6.75;5.50;;;;;-146.03;100.00;60875.16;6273134;22;45322;-86
2022/04/19 01:01:06;;;;;;;;;6.50;6.50;;;;;-146.03;100.00;60875.16;6273054;22;45810;-86
2022/04/19 01:03:31;;;;;;;;;5.00;4.75;;;;;-146.03;100.00;60875.16;6272164;22;45274;-86
2022/04/19 01:05:58;;;;;;;;;3.75;3.25;;;;;-146.03;100.00;60875.16;6272981;22;45376;-86
2022/04/19 01:08:24;;;;;;;;;4.00;3.25;;;;;-146.03;100.00;60875.16;6245073;22;45345;-86
2022/04/19 01:10:49;;;;;;;;;3.75;3.75;;;;;-146.03;100.00;60875.16;6272656;22;45553;-86
2022/04/19 01:13:18;;;;;;;;;5.75;5.00;;;;;-146.03;100.00;60875.16;6273232;22;45339;-86
2022/04/19 01:15:52;;;;;;;;;4.00;4.00;;;;;-146.03;100.00;60875.16;6272981;22;45393;-85
2022/04/19 01:18:24;;;;;;;;;4.25;4.00;;;;;-146.03;100.00;60875.16;6272138;22;54741;-87
2022/04/19 01:20:49;;;;;;;;;3.50;3.50;;;;;-146.03;100.00;60875.16;6272522;22;46028;-84
2022/04/19 01:23:18;;;;;;;;;3.25;2.25;;;;;-146.03;100.00;60875.16;6272862;22;45430;-87
2022/04/19 01:25:43;;;;;;;;;7.00;5.50;;;;;-146.03;100.00;60875.16;6273189;22;45687;-84
2022/04/19 01:28:09;;;;;;;;;3.50;3.50;;;;;-146.03;100.00;60875.16;6272675;22;45660;-85
2022/04/19 01:30:36;;;;;;;;;4.25;4.25;;;;;-146.03;100.00;60875.16;6272854;22;45488;-85
2022/04/19 01:33:02;;;;;;;;;4.75;4.75;;;;;-146.03;100.00;60875.16;6273284;22;45271;-85
2022/04/19 01:35:28;;;;;;;;;4.00;2.25;;;;;-146.03;100.00;60875.16;6272639;22;45768;-85
2022/04/19 01:37:53;;;;;;;;;4.00;3.00;;;;;-146.03;100.00;60875.16;6272977;22;45265;-85
2022/04/19 01:40:19;;;;;;;;;3.50;3.50;;;;;-146.03;100.00;60875.16;6272800;22;46212;-86
2022/04/19 01:42:46;;;;;;;;;2.00;2.00;;;;;-146.03;100.00;60875.16;6272884;22;45403;-86
2022/04/19 01:45:16;;;;;;;;;4.00;2.00;;;;;-146.03;100.00;60875.16;6273177;22;45316;-87
2022/04/19 01:47:42;;;;;;;;;5.75;2.75;;;;;-146.03;100.00;60875.16;6272912;22;45335;-86
2022/04/19 01:50:11;;;;;;;;;3.00;3.00;;;;;-146.03;100.00;60875.16;6272611;22;45380;-86
2022/04/19 01:52:37;;;;;;;;;4.00;4.00;;;;;-146.03;100.00;60875.16;6245080;22;45333;-85
2022/04/19 01:55:08;;;;;;;;;4.00;4.00;;;;;-146.03;100.00;60875.16;6272761;22;45345;-86
2022/04/19 01:57:34;;;;;;;;;4.75;3.00;;;;;-146.03;100.00;60875.16;6272216;22;45335;-85
2022/04/19 02:00:01;;;;;;;;;3.75;3.75;;;;;-146.03;100.00;60875.16;6271745;22;46515;-85
2022/04/19 02:02:26;;;;;;;;;5.00;5.00;;;;;-146.03;100.00;60875.16;6244944;22;45294;-86
2022/04/19 02:04:51;;;;;;;;;3.00;3.00;;;;;-146.03;100.00;60875.16;6272308;22;45746;-87
2022/04/19 02:07:17;;;;;;;;;5.50;4.25;;;;;-146.03;100.00;60875.16;6272843;22;45454;-85
2022/04/19 02:09:42;;;;;;;;;5.25;4.25;;;;;-146.03;100.00;60875.16;6272695;22;45270;-86
2022/04/19 02:12:08;;;;;;;;;5.00;5.00;;;;;-146.03;100.00;60875.16;6272767;22;45219;-86
2022/04/19 02:14:33;;;;;;;;;3.50;3.50;;;;;-146.03;100.00;60875.16;6272368;22;45451;-86
2022/04/19 02:16:59;;;;;;;;;2.00;2.00;;;;;-146.03;100.00;60875.16;6271883;22;45309;-85
2022/04/19 02:19:24;;;;;;;;;4.00;3.00;;;;;-146.03;100.00;60875.16;6272038;22;47263;-86
2022/04/19 02:21:49;;;;;;;;;3.00;3.00;;;;;-146.03;100.00;60875.16;6271956;22;45301;-85
2022/04/19 02:24:15;;;;;;;;;4.00;3.00;;;;;-146.03;100.00;60875.16;6272094;22;45391;-86
2022/04/19 02:26:40;;;;;;;;;5.00;3.25;;;;;-146.03;100.00;60875.16;6272256;22;45274;-85
2022/04/19 02:29:05;;;;;;;;;4.50;2.75;;;;;-146.03;100.00;60875.16;6272031;22;46253;-85
2022/04/19 02:31:31;;;;;;;;;3.25;3.25;;;;;-146.03;100.00;60875.16;6244838;22;45393;-85
2022/04/19 02:33:58;;;;;;;;;1.00;1.00;;;;;-146.03;100.00;60875.16;6272419;22;45270;-86
2022/04/19 02:36:24;;;;;;;;;2.50;2.00;;;;;-146.03;100.00;60875.16;6272724;22;45234;-85
2022/04/19 02:38:50;;;;;;;;;2.75;1.75;;;;;-146.03;100.00;60875.16;6272300;22;45614;-86
2022/04/19 02:41:15;;;;;;;;;4.00;3.75;;;;;-146.03;100.00;60875.16;6272436;22;45203;-85
2022/04/19 02:43:40;;;;;;;;;4.75;4.00;;;;;-146.03;100.00;60875.16;6272571;22;45352;-85
2022/04/19 02:46:06;;;;;;;;;3.00;3.00;;;;;-146.03;100.00;60875.16;6272262;22;46596;-85
2022/04/19 02:48:31;;;;;;;;;3.25;3.25;;;;;-146.03;100.00;60875.16;6272353;22;45514;-85
2022/04/19 02:50:56;;;;;;;;;3.75;3.75;;;;;-146.03;100.00;60875.16;6271459;22;45303;-85
2022/04/19 02:53:22;;;;;;;;;2.50;2.50;;;;;-146.03;100.00;60875.16;6271828;22;45754;-85
2022/04/19 02:55:48;;;;;;;;;4.00;3.00;;;;;-146.03;100.00;60875.16;6272803;22;45271;-85
2022/04/19 02:58:13;;;;;;;;;5.00;4.00;;;;;-146.03;100.00;60875.16;6271237;22;45289;-85
2022/04/19 03:00:39;;;;;;;;;2.75;2.75;;;;;-146.03;100.00;60875.16;6243571;22;45493;-88
2022/04/19 03:03:08;;;;;;;;;4.00;4.00;;;;;-146.03;100.00;60875.16;6271242;22;45369;-84
2022/04/19 03:05:37;;;;;;;;;5.00;3.00;;;;;-146.03;100.00;60875.16;6243247;22;45481;-86
2022/04/19 03:08:03;;;;;;;;;6.00;4.25;;;;;-146.03;100.00;60875.16;6271614;22;45262;-85
2022/04/19 03:10:29;;;;;;;;;6.00;5.00;;;;;-146.03;100.00;60875.16;6272458;22;45301;-85
2022/04/19 03:12:54;;;;;;;;;6.50;5.75;;;;;-146.03;100.00;60875.16;6271619;22;45281;-86
2022/04/19 03:15:20;;;;;;;;;5.75;5.00;;;;;-146.03;100.00;60875.16;6271935;22;45324;-86
2022/04/19 03:17:45;;;;;;;;;6.00;3.75;;;;;-146.03;100.00;60875.16;6271569;22;46418;-86
2022/04/19 03:20:11;;;;;;;;;5.00;5.00;;;;;-146.03;100.00;60875.16;6271176;22;45329;-85
2022/04/19 03:28:05;;;;;;;;;4.25;4.25;;;;;-146.03;100.00;60875.16;6270514;22;45416;-85
2022/04/19 03:30:30;;;;;;;;;4.00;3.50;;;;;-146.03;100.00;60875.16;6271985;22;45367;-85
2022/04/19 03:32:56;;;;;;;;;5.25;3.00;;;;;-146.03;100.00;60875.16;6271933;22;45777;-85
2022/04/19 03:35:21;;;;;;;;;4.50;4.00;;;;;-146.03;100.00;60875.16;6272552;22;45460;-86
2022/04/19 03:37:46;;;;;;;;;4.75;3.00;;;;;-146.03;100.00;60875.16;6272956;22;45357;-84
2022/04/19 03:40:12;;;;;;;;;7.50;4.75;;;;;-146.03;100.00;60875.16;6272984;22;50790;-88
2022/04/19 03:42:40;;;;;;;;;3.00;3.00;;;;;-146.03;100.00;60875.16;6273028;22;45415;-86
2022/04/19 03:45:07;;;;;;;;;3.75;2.50;;;;;-146.03;100.00;60875.16;6273003;22;45429;-85
2022/04/19 03:47:34;;;;;;;;;4.00;3.25;;;;;-146.03;100.00;60875.16;6272921;22;46217;-85
2022/04/19 03:50:00;;;;;;;;;6.50;5.75;;;;;-146.03;100.00;60875.16;6273224;22;45655;-85
2022/04/19 03:52:26;;;;;;;;;6.25;3.75;;;;;-146.03;100.00;60875.16;6273852;22;45269;-86
2022/04/19 03:54:51;;;;;;;;;3.00;3.00;;;;;-146.03;100.00;60875.16;6273229;22;45332;-86
2022/04/19 03:57:18;;;;;;;;;3.00;3.00;;;;;-146.03;100.00;60875.16;6272567;22;45979;-86
2022/04/19 03:59:43;;;;;;;;;4.50;3.50;;;;;-146.03;100.00;60875.16;6273183;22;45333;-85
2022/04/19 04:02:08;;;;;;;;;3.00;3.00;;;;;-146.03;100.00;60875.16;6273506;22;45336;-86
2022/04/19 04:04:35;;;;;;;;;5.75;4.00;;;;;-146.03;100.00;60875.16;6273472;22;45281;-85
2022/04/19 04:07:05;;;;;;;;;4.50;3.00;;;;;-146.03;100.00;60875.16;6273017;22;45936;-85
2022/04/19 04:09:37;;;;;;;;;4.25;3.00;;;;;-146.03;100.00;60875.16;6272979;22;45300;-85
2022/04/19 04:12:17;;;;;;;;;5.00;3.00;;;;;-146.03;100.00;60875.16;6272603;22;45321;-85
2022/04/19 04:14:45;;;;;;;;;3.25;3.25;;;;;-146.03;100.00;60875.16;6273397;22;45272;-85
2022/04/19 04:17:11;;;;;;;;;3.00;3.00;;;;;-146.03;100.00;60875.16;6273041;22;45903;-85
2022/04/19 04:19:36;;;;;;;;;2.00;2.00;;;;;-146.03;100.00;60875.16;6273428;22;45299;-85
2022/04/19 04:22:03;;;;;;;;;5.00;5.00;;;;;-146.03;100.00;60875.16;6272825;22;45244;-85
2022/04/19 04:24:28;;;;;;;;;3.00;2.50;;;;;-146.03;100.00;60875.16;6273080;22;45323;-85
2022/04/19 04:26:53;;;;;;;;;3.75;2.75;;;;;-146.03;100.00;60875.16;6272455;22;46079;-85
2022/04/19 04:29:19;;;;;;;;;2.50;2.50;;;;;-146.03;100.00;60875.16;6273562;22;45608;-85
2022/04/19 04:31:44;;;;;;;;;4.50;3.50;;;;;-146.03;100.00;60875.16;6274285;22;45317;-86
2022/04/19 04:34:10;;;;;;;;;4.00;4.00;;;;;-146.03;100.00;60875.16;6274067;22;45508;-85
2022/04/19 04:36:35;;;;;;;;;3.00;3.00;;;;;-146.03;100.00;60875.16;6273786;22;46056;-86
2022/04/19 04:39:01;;;;;;;;;5.25;4.00;;;;;-146.03;100.00;60875.16;6246569;22;45385;-86
2022/04/19 04:41:27;;;;;;;;;5.00;3.25;;;;;-146.03;100.00;60875.16;6273741;22;45298;-85
2022/04/19 04:43:52;;;;;;;;;3.75;3.00;;;;;-146.03;100.00;60875.16;6273361;22;45345;-86
2022/04/19 04:51:46;;;;;;;;;4.00;3.00;;;;;-146.03;100.00;60875.16;6274058;22;45265;-86
2022/04/19 04:54:11;;;;;;;;;4.00;4.00;;;;;-146.03;100.00;60875.16;6273611;22;45369;-86
2022/04/19 04:56:36;;;;;;;;;2.50;2.50;;;;;-146.03;100.00;60875.16;6273330;22;56133;-86
2022/04/19 04:59:02;;;;;;;;;3.25;3.25;;;;;-146.03;100.00;60875.16;6273745;22;45396;-86
2022/04/19 05:01:27;;;;;;;;;3.25;3.25;;;;;-146.03;100.00;60875.16;6273996;22;45305;-86
2022/04/19 05:03:53;;;;;;;;;6.50;4.00;;;;;-146.03;100.00;60875.16;6273724;22;45333;-85
2022/04/19 05:06:18;;;;;;;;;6.25;4.00;;;;;-146.03;100.00;60875.16;6273730;22;45894;-85
2022/04/19 05:08:43;;;;;;;;;4.00;4.00;;;;;-146.03;100.00;60875.16;6273210;22;45274;-86
2022/04/19 05:11:09;;;;;;;;;5.25;4.25;;;;;-146.03;100.00;60875.16;6274027;22;45285;-85
2022/04/19 05:13:34;;;;;;;;;5.00;2.50;;;;;-146.03;100.00;60875.16;6274024;22;45326;-85
2022/04/19 05:16:00;;;;;;;;;3.50;3.25;;;;;-146.03;100.00;60875.16;6273289;22;46036;-85
2022/04/19 05:18:26;;;;;;;;;4.50;3.50;;;;;-146.03;100.00;60875.16;6273615;22;45218;-85
2022/04/19 05:20:52;;;;;;;;;6.50;5.50;;;;;-146.03;100.00;60875.16;6272211;22;45321;-86
2022/04/19 05:23:18;;;;;;;;;5.25;4.50;;;;;-146.03;100.00;60875.16;6245322;22;45471;-85
2022/04/19 05:25:43;;;;;;;;;3.50;3.50;;;;;-146.03;100.00;60875.16;6273773;22;45285;-85
2022/04/19 05:28:08;;;;;;;;;5.25;4.00;;;;;-146.03;100.00;60875.16;6273453;22;45389;-85
2022/04/19 05:30:34;;;;;;;;;3.50;3.00;;;;;-146.03;100.00;60875.16;6273937;22;45286;-85
2022/04/19 05:32:59;;;;;;;;;8.00;5.75;;;;;-146.03;100.00;60875.16;6273596;22;45332;-86
2022/04/19 05:35:24;;;;;;;;;5.75;5.75;;;;;-146.03;100.00;60875.16;6246045;22;47471;-86
2022/04/19 05:37:50;;;;;;;;;7.50;4.75;;;;;-146.03;100.00;60875.16;6273453;22;45269;-85
2022/04/19 05:40:15;;;;;;;;;5.00;2.25;;;;;-146.03;100.00;60875.16;6246263;22;45570;-85
2022/04/19 05:42:41;;;;;;;;;5.25;5.25;;;;;-146.03;100.00;60875.16;6273378;22;45325;-86
2022/04/19 05:45:07;;;;;;;;;5.00;5.00;;;;;-146.03;100.00;60875.16;6273159;22;58790;-86
2022/04/19 05:47:33;;;;;;;;;4.50;4.00;;;;;-146.03;100.00;60875.16;6245852;22;45921;-86
2022/04/19 05:49:58;;;;;;;;;7.00;6.00;;;;;-146.03;100.00;60875.16;6273499;22;45375;-85
2022/04/19 05:52:23;;;;;;;;;8.50;6.25;;;;;-146.03;100.00;60875.16;6273575;22;45318;-85
2022/04/19 05:54:49;;;;;;;;;3.75;3.75;;;;;-146.03;100.00;60875.16;6245734;22;47241;-85
2022/04/19 05:57:14;;;;;;;;;6.50;5.00;;;;;-146.03;100.00;60875.16;6245215;22;45322;-85
2022/04/19 05:59:39;;;;;;;;;5.00;5.00;;;;;-146.03;100.00;60875.16;6273309;22;53400;-85
2022/04/19 06:04:52;;;;;;;;;6.25;6.25;;;;;-146.03;100.00;60875.16;6272635;22;45684;-86
2022/04/19 06:07:21;;;;;;;;;3.50;3.50;;;;;-146.03;100.00;60875.16;6244961;22;45242;-85
2022/04/19 06:09:47;;;;;;;;;7.00;6.25;;;;;-146.03;100.00;60875.16;6272677;22;45313;-86
2022/04/19 06:12:12;;;;;;;;;10.25;6.50;;;;;-146.03;100.00;60875.16;6273366;22;45298;-86
2022/04/19 06:14:38;;;;;;;;;7.00;6.00;;;;;-146.03;100.00;60875.16;6273663;22;45732;-86
2022/04/19 06:17:04;;;;;;;;;5.00;5.00;;;;;-146.03;100.00;60875.16;6273725;22;45318;-85
2022/04/19 06:19:30;;;;;;;;;6.00;5.25;;;;;-146.03;100.00;60875.16;6246096;22;45295;-86
2022/04/19 06:21:56;;;;;;;;;6.25;5.75;;;;;-146.03;100.00;60875.16;6272515;22;45393;-85
2022/04/19 06:24:22;;;;;;;;;6.50;6.00;;;;;-146.03;100.00;60875.16;6273244;22;45528;-86
2022/04/19 06:26:48;;;;;;;;;5.00;2.75;;;;;-146.03;100.00;60875.16;6272959;22;45283;-86
2022/04/19 06:29:14;;;;;;;;;5.25;4.25;;;;;-146.03;100.00;60875.16;6273283;22;45270;-85
2022/04/19 06:31:40;;;;;;;;;4.25;3.00;;;;;-146.03;100.00;60875.16;6245250;22;45365;-85
2022/04/19 06:34:07;;;;;;;;;5.00;4.00;;;;;-146.03;100.00;60875.16;6269602;22;46012;-85
2022/04/19 06:36:32;;;;;;;;;5.25;5.25;;;;;-146.03;100.00;60875.16;6269053;22;45504;-85
2022/04/19 06:38:58;;;;;;;;;6.00;5.00;;;;;-146.03;100.00;60875.16;6271815;22;45329;-85
2022/04/19 06:41:23;;;;;;;;;5.75;3.00;;;;;-146.03;100.00;60875.16;6272513;22;45298;-85
2022/04/19 06:43:48;;;;;;;;;7.00;3.25;;;;;-146.03;100.00;60875.16;6270930;22;66487;-85
2022/04/19 06:46:15;;;;;;;;;7.50;6.00;;;;;-146.03;100.00;60875.16;6269585;22;45322;-85
2022/04/19 06:48:41;;;;;;;;;5.50;4.50;;;;;-146.03;100.00;60875.16;6272193;22;45326;-85
2022/04/19 06:51:06;;;;;;;;;6.75;6.00;;;;;-146.03;100.00;60875.16;6272294;22;45267;-85
2022/04/19 06:53:31;;;;;;;;;7.25;6.25;;;;;-146.03;100.00;60875.16;6271118;22;45916;-85
2022/04/19 06:55:57;;;;;;;;;6.00;4.50;;;;;-146.03;100.00;60875.16;6242843;22;53369;-85
2022/04/19 06:58:22;;;;;;;;;6.50;5.50;;;;;-146.03;100.00;60875.16;6272109;22;45188;-84
2022/04/19 07:00:48;;;;;;;;;7.00;5.75;;;;;-146.03;100.00;60875.16;6272125;22;45310;-85
2022/04/19 07:03:14;;;;;;;;;6.75;6.00;;;;;-146.03;100.00;60875.16;6243802;22;47070;-84
2022/04/19 07:05:39;;;;;;;;;9.50;7.75;;;;;-146.03;100.00;60875.16;6270827;22;45230;-84
2022/04/19 07:08:06;;;;;;;;;7.25;6.00;;;;;-146.03;100.00;60875.16;6271714;22;45492;-85
2022/04/19 07:10:33;;;;;;;;;7.25;7.25;;;;;-146.03;100.00;60875.16;6273789;22;45447;-84
2022/04/19 07:12:59;;;;;;;;;8.25;7.75;;;;;-146.03;100.00;60875.16;6272103;22;47346;-84
2022/04/19 07:15:25;;;;;;;;;6.00;5.75;;;;;-146.03;100.00;60875.16;6273033;22;45357;-85
2022/04/19 07:17:50;;;;;;;;;7.50;6.50;;;;;-146.03;100.00;60875.16;6271515;22;45329;-85
2022/04/19 07:28:28;;;;;;;;;7.50;6.00;;;;;-146.03;100.00;60875.16;6273251;22;45301;-85
2022/04/19 07:30:53;;;;;;;;;7.00;7.00;;;;;-146.03;100.00;60875.16;6273584;22;45237;-86
2022/04/19 07:33:19;;;;;;;;;7.00;6.00;;;;;-146.03;100.00;60875.16;6272595;22;45458;-86
2022/04/19 07:35:44;;;;;;;;;7.75;6.50;;;;;-146.03;100.00;60875.16;6272473;22;45384;-85
2022/04/19 07:38:10;;;;;;;;;11.50;8.00;;;;;-146.03;100.00;60875.16;6272583;22;45316;-86
2022/04/19 07:40:36;;;;;;;;;5.00;5.00;;;;;-146.03;100.00;60875.16;6274064;22;45412;-86
2022/04/19 07:43:02;;;;;;;;;9.25;6.25;;;;;-146.03;100.00;60875.16;6273791;22;45262;-86
2022/04/19 07:45:28;;;;;;;;;8.25;5.50;;;;;-146.03;100.00;60875.16;6273420;22;45291;-86
2022/04/19 07:47:54;;;;;;;;;7.00;6.00;;;;;-146.03;100.00;60875.16;6273052;22;45303;-86
2022/04/19 07:50:19;;;;;;;;;8.75;7.25;;;;;-146.03;100.00;60875.16;6245590;22;45606;-83
2022/04/19 07:52:45;;;;;;;;;10.25;7.50;;;;;-146.03;100.00;60875.16;6273055;22;45384;-87
2022/04/19 07:55:10;;;;;;;;;7.50;5.00;;;;;-146.03;100.00;60875.16;6245338;22;45874;-86
2022/04/19 07:57:35;;;;;;;;;6.00;6.00;;;;;-146.03;100.00;60875.16;6272127;22;45384;-87
2022/04/19 08:00:01;;;;;;;;;7.50;7.50;;;;;-146.03;100.00;60875.16;6271633;22;51510;-86
2022/04/19 08:02:28;;;;;;;;;9.75;9.00;;;;;-146.03;100.00;60875.16;6272408;22;46261;-86
2022/04/19 08:04:54;;;;;;;;;7.00;7.00;;;;;-146.03;100.00;60875.16;6272737;22;45306;-85
2022/04/19 08:07:20;;;;;;;;;10.50;7.50;;;;;-146.03;100.00;60875.16;6272297;22;45377;-86
2022/04/19 08:09:45;;;;;;;;;5.00;5.00;;;;;-146.03;100.00;60875.16;6246120;22;45421;-86
2022/04/19 08:12:11;;;;;;;;;8.25;5.00;;;;;-146.03;100.00;60875.16;6272400;22;54953;-85
2022/04/19 08:14:37;;;;;;;;;6.25;4.75;;;;;-146.03;100.00;60875.16;6272665;22;45254;-86
2022/04/19 08:17:02;;;;;;;;;5.00;5.00;;;;;-146.03;100.00;60875.16;6271301;22;45369;-85
2022/04/19 08:19:28;;;;;;;;;6.00;5.00;;;;;-146.03;100.00;60875.16;6244830;22;45612;-86
2022/04/19 08:21:53;;;;;;;;;6.50;5.75;;;;;-146.03;100.00;60875.16;6272807;22;46280;-87
2022/04/19 08:24:19;;;;;;;;;5.00;4.00;;;;;-146.03;100.00;60875.16;6272934;22;45273;-87
2022/04/19 08:26:44;;;;;;;;;4.00;4.00;;;;;-146.03;100.00;60875.16;6272457;22;45374;-87
2022/04/19 08:29:11;;;;;;;;;6.75;5.50;;;;;-146.03;100.00;60875.16;6245266;22;45532;-87
2022/04/19 08:31:36;;;;;;;;;6.00;6.00;;;;;-146.03;100.00;60875.16;6272363;22;46102;-87
2022/04/19 08:34:02;;;;;;;;;4.75;4.75;;;;;-146.03;100.00;60875.16;6245199;22;45344;-86
2022/04/19 08:36:27;;;;;;;;;5.00;5.00;;;;;-146.03;100.00;60875.16;6271780;22;45281;-86
2022/04/19 08:38:53;;;;;;;;;8.00;4.50;;;;;-146.03;100.00;60875.16;6272374;22;45317;-87
2022/04/19 08:41:20;;;;;;;;;7.00;7.00;;;;;-146.03;100.00;60875.16;6245144;22;45444;-87
2022/04/19 08:43:46;;;;;;;;;9.00;6.00;;;;;-146.03;100.00;60875.16;6273091;22;45607;-88
2022/04/19 08:46:12;;;;;;;;;6.50;5.25;;;;;-146.03;100.00;60875.16;6272786;22;45422;-87
2022/04/19 08:48:40;;;;;;;;;8.75;4.25;;;;;-146.03;100.00;60875.16;6272353;22;45299;-87
2022/04/19 08:51:09;;;;;;;;;6.00;4.25;;;;;-146.03;100.00;60875.16;6273007;22;45342;-87
2022/04/19 08:59:06;;;;;;;;;6.00;6.00;;;;;-146.03;100.00;60875.16;6273219;22;45383;-87
2022/04/19 09:01:31;;;;;;;;;5.50;5.50;;;;;-146.03;100.00;60875.16;6272099;22;46214;-87
2022/04/19 09:03:57;;;;;;;;;6.75;6.00;;;;;-146.03;100.00;60875.16;6272969;22;45240;-87
2022/04/19 09:06:54;;;;;;;;;10.00;6.00;;;;;-146.03;100.00;60875.16;6272998;22;45517;-87
2022/04/19 09:09:27;;;;;;;;;4.00;4.00;;;;;-146.03;100.00;60875.16;6263654;22;45437;-86
2022/04/19 09:11:54;;;;;;;;;6.50;6.50;;;;;-146.03;100.00;60875.16;6272740;22;46695;-87
2022/04/19 09:14:22;;;;;;;;;8.00;5.00;;;;;-146.03;100.00;60875.16;6273372;22;45301;-86
2022/04/19 09:16:47;;;;;;;;;6.75;6.75;;;;;-146.03;100.00;60875.16;6272553;22;45403;-88
2022/04/19 09:19:29;;;;;;;;;7.00;5.00;;;;;-146.03;100.00;60875.16;6245162;22;45404;-87
2022/04/19 09:21:54;;;;;;;;;9.75;7.00;;;;;-146.03;100.00;60875.16;6273098;22;45845;-87
2022/04/19 09:24:21;;;;;;;;;12.00;7.25;;;;;-146.03;100.00;60875.16;6272564;22;45220;-87
2022/04/19 09:26:50;;;;;;;;;7.50;7.00;;;;;-146.03;100.00;60875.16;6272759;22;45374;-87
2022/04/19 09:29:21;;;;;;;;;10.00;8.50;;;;;-146.03;100.00;60875.16;6273143;22;45453;-87
2022/04/19 09:31:51;;;;;;;;;6.50;6.50;;;;;-146.03;100.00;60875.16;6273140;22;45435;-87
2022/04/19 09:34:36;;;;;;;;;10.25;9.75;;;;;-146.03;100.00;60875.16;6273088;22;45258;-88
2022/04/19 09:37:11;;;;;;;;;8.25;7.25;;;;;-146.03;100.00;60875.16;6244343;22;45189;-87
2022/04/19 09:39:38;;;;;;;;;10.00;7.50;;;;;-146.03;100.00;60875.16;6272150;22;45362;-88
2022/04/19 09:42:08;;;;;;;;;7.75;7.75;;;;;-146.03;100.00;60875.16;6272730;22;45687;-89
2022/04/19 09:44:42;;;;;;;;;6.00;6.00;;;;;-146.03;100.00;60875.16;6271760;22;45410;-88
2022/04/19 09:47:09;;;;;;;;;1.25;0.25;;;;;-146.03;100.00;60875.16;6273685;22;45242;-87
2022/04/19 09:49:52;;;;;;;;;6.25;6.25;;;;;-146.03;100.00;60875.16;6245004;22;45352;-88
2022/04/19 09:52:24;;;;;;;;;8.25;8.00;;;;;-146.03;100.00;60875.16;6273479;22;46216;-88
2022/04/19 09:55:08;;;;;;;;;9.00;9.00;;;;;-146.03;100.00;60875.16;6272764;22;45372;-88
2022/04/19 09:57:39;;;;;;;;;9.50;9.50;;;;;-146.03;100.00;60875.16;6272763;22;45393;-87
2022/04/19 10:00:06;;;;;;;;;10.00;9.00;;;;;-146.03;100.00;60875.16;6272786;22;45371;-87
2022/04/19 10:08:20;;;;;;;;;8.50;7.25;;;;;-146.03;100.00;60875.16;6273111;22;45238;-88
2022/04/19 10:10:51;;;;;;;;;9.00;9.00;;;;;-146.03;100.00;60875.16;6244536;22;45270;-87
2022/04/19 10:13:18;;;;;;;;;12.25;9.75;;;;;-146.03;100.00;60875.16;6272087;22;45529;-86
2022/04/19 10:15:44;;;;;;;;;10.25;10.25;;;;;-146.03;100.00;60875.16;6272270;22;45322;-86
2022/04/19 10:18:10;;;;;;;;;9.75;8.75;;;;;-146.03;100.00;60875.16;6272674;22;45372;-86
2022/04/19 10:20:58;;;;;;;;;10.00;7.50;;;;;-146.03;100.00;60875.16;6244486;22;45278;-86
2022/04/19 10:23:41;;;;;;;;;10.25;8.50;;;;;-146.03;100.00;60875.16;6272774;22;45298;-86
2022/04/19 10:26:21;;;;;;;;;8.75;8.75;;;;;-146.03;100.00;60875.16;6272623;22;45641;-86
2022/04/19 10:28:52;;;;;;;;;12.75;10.75;;;;;-146.03;100.00;60875.16;6271797;22;45258;-86
2022/04/19 10:31:37;;;;;;;;;9.00;8.75;;;;;-146.03;100.00;60875.16;6272936;22;45230;-86
2022/04/19 10:34:04;;;;;;;;;9.75;9.75;;;;;-146.03;100.00;60875.16;6244806;22;47100;-86
2022/04/19 10:36:37;;;;;;;;;8.00;8.00;;;;;-146.03;100.00;60875.16;6272012;22;45294;-86
2022/04/19 10:39:12;;;;;;;;;13.50;11.50;;;;;-146.03;100.00;60875.16;6272670;22;45314;-87
2022/04/19 10:41:56;;;;;;;;;13.00;11.25;;;;;-146.03;100.00;60875.16;6272602;22;45422;-86
2022/04/19 10:44:41;;;;;;;;;13.25;11.75;;;;;-146.03;100.00;60875.16;6272426;22;45361;-87
2022/04/19 10:47:14;;;;;;;;;12.25;11.00;;;;;-146.03;100.00;60875.16;6271666;22;45309;-86
2022/04/19 10:50:02;;;;;;;;;10.25;9.50;;;;;-146.03;100.00;60875.16;6272621;22;45342;-86
2022/04/19 10:52:36;;;;;;;;;13.00;11.25;;;;;-146.03;100.00;60875.16;6272465;22;45294;-87
2022/04/19 10:55:02;;;;;;;;;10.00;10.00;;;;;-146.03;100.00;60875.16;6243980;22;46819;-86
2022/04/19 11:00:22;;;;;;;;;10.00;8.50;;;;;-146.03;100.00;60875.16;6271995;22;45250;-88
2022/04/19 11:03:00;;;;;;;;;11.75;10.00;;;;;-146.03;100.00;60875.16;6272162;22;45312;-88
2022/04/19 11:06:04;;;;;;;;;11.25;11.25;;;;;-146.03;100.00;60875.16;6271966;22;45377;-88
2022/04/19 11:08:37;;;;;;;;;7.25;7.25;;;;;-146.03;100.00;60875.16;6257516;22;45304;-87
2022/04/19 11:11:02;;;;;;;;;16.00;12.25;;;;;-146.03;100.00;60875.16;6271738;22;45307;-87
2022/04/19 11:13:35;;;;;;;;;15.75;11.50;;;;;-146.03;100.00;60875.16;6271760;22;45762;-86
2022/04/19 11:16:06;;;;;;;;;10.75;10.75;;;;;-146.03;100.00;60875.16;6244368;22;45987;-87
2022/04/19 11:18:33;;;;;;;;;10.50;9.25;;;;;-146.03;100.00;60875.16;6272365;22;45495;-88
2022/04/19 11:21:04;;;;;;;;;13.75;11.75;;;;;-146.03;100.00;60875.16;6272556;22;45252;-89
2022/04/19 11:23:40;;;;;;;;;14.00;11.50;;;;;-146.03;100.00;60875.16;6272247;22;45379;-87
2022/04/19 11:26:08;;;;;;;;;11.75;11.25;;;;;-146.03;100.00;60875.16;6270857;22;45322;-88
2022/04/19 11:28:34;;;;;;;;;17.75;14.25;;;;;-146.03;100.00;60875.16;6271801;22;45297;-89
2022/04/19 11:31:00;;;;;;;;;10.50;10.50;;;;;-146.03;100.00;60875.16;6272491;22;45317;-89
2022/04/19 11:33:31;;;;;;;;;12.25;12.25;;;;;-146.03;100.00;60875.16;6246687;22;45427;-88
2022/04/19 11:36:03;;;;;;;;;14.00;11.25;;;;;-146.03;100.00;60875.16;6271950;22;46018;-87
2022/04/19 11:38:30;;;;;;;;;13.00;11.50;;;;;-146.03;100.00;60875.16;6243735;22;46043;-89
2022/04/19 11:46:45;;;;;;;;;10.00;10.00;;;;;-146.03;100.00;60875.16;6272060;22;45712;-88
2022/04/19 11:49:16;;;;;;;;;12.50;12.25;;;;;-146.03;100.00;60875.16;6244104;22;45652;-89